James Reserve, California Weather observations

Data are for 10 minute period ending at time listed.
 Day   Time   Solar   Ave.   Ave.  Ave.  Vector  Max.   Baro.   Total    
  of    of     Rad.   Air    Rel.  Wind   Wind   Wind  Press.  Precip.   
Year   Day            Temp.  Hum.  Speed  Dir.   Gust                    
2015   (PST)  Kw/m2    F      %     mph   deg.    mph    mb.     in.     
-------------------------------------------------------------------------
  59   12:00   0.29   37.1    99    1.1    40     2.9   831.0    0.00 
  59   12:10   0.25   37.5    98    1.0   340     2.3   831.0    0.00 
  59   12:20   0.12   36.8    96    0.9     8     2.1   830.0    0.00 
  59   12:30   0.17   36.7    93    1.1    56     4.0   830.0    0.00 
  59   12:40   0.08   36.5    93    0.9    67     2.1   830.0    0.00 
  59   12:50   0.04   35.4    93    1.2    71     3.5   830.0    0.02 
  59   13:00   0.04   34.5    96    0.8    64     2.4   830.0    0.02 
  59   13:10   0.04   33.7    97    1.0    70     2.0   830.0    0.03 
  59   13:20   0.05   33.1    98    0.8    44     1.9   830.0    0.03 
  59   13:30   0.07   32.9    98    1.0    48     2.7   830.0    0.01 
  59   13:40   0.05   33.3    99    0.7    37     2.0   830.0    0.00 
  59   13:50   0.06   33.8    99    0.8    49     2.1   830.0    0.01 
  59   14:00   0.06   34.3    99    1.1    53     2.6   830.0    0.01 
  59   14:10   0.06   34.6    99    1.2    70     3.0   830.0    0.01 
  59   14:20   0.10   34.4    99    1.1    75     2.5   830.0    0.00 
  59   14:30   0.10   34.7    99    0.6    65     3.2   830.0    0.00 
  59   14:40   0.07   35.4    99    0.8    21     2.7   830.0    0.00 
  59   14:50   0.06   35.2    99    0.8    66     2.4   830.0    0.01 
  59   15:00   0.05   34.4    99    0.7    44     1.9   830.0    0.01 
  59   15:10   0.04   33.8    99    0.6    24     1.7   830.0    0.02 
  59   15:20   0.03   33.0    99    0.6    51     1.1   830.0    0.01 
  59   15:30   0.04   33.0    99    0.4    39     1.6   830.0    0.00 
  59   15:40   0.05   33.6    99    0.8    46     1.8   830.0    0.00 
  59   15:50   0.04   34.1    99    0.6    19     1.6   830.0    0.00 
  59   16:00   0.04   34.9    99    0.8   329     2.6   830.0    0.00 
  59   16:10   0.05   35.0    99    0.7    51     2.1   830.0    0.00 
  59   16:20   0.04   35.0    99    0.7    83     1.8   830.0    0.00 
  59   16:30   0.02   34.9    99    0.4    28     1.2   830.0    0.00 
  59   16:40   0.02   35.0    99    0.7    46     1.8   830.0    0.00 
  59   16:50   0.03   35.1    99    0.6    62     1.6   830.0    0.00 
  59   17:00   0.02   35.2    99    0.4    52     1.2   830.0    0.00 
  59   17:10   0.01   34.9    99    0.5    88     1.1   830.0    0.00 
  59   17:20   0.01   34.8    99    0.7    64     1.4   831.0    0.00 
  59   17:30   0.01   34.9    99    0.6    79     1.6   831.0    0.00 
  59   17:40   0.00   34.9    99    0.6    90     1.5   831.0    0.00 
  59   17:50   0.00   34.8    99    0.3   105     0.9   831.0    0.00 
  59   18:00   0.00   34.7    99    0.7    91     1.4   831.0    0.00 
  59   18:10   0.00   34.5    99    0.5    64     1.2   831.0    0.00 
  59   18:20   0.00   34.1    99    0.6    59     1.2   831.0    0.00 
  59   18:30   0.00   33.7    99    0.6    62     1.1   831.0    0.00 
  59   18:40   0.00   33.5    99    0.4    57     0.9   831.0    0.00 
  59   18:50   0.00   33.7    99    0.7    56     2.1   831.0    0.00 
  59   19:00   0.00   33.8    99    0.5    57     1.3   831.0    0.00 
  59   19:10   0.00   33.8    99    0.2    42     0.6   831.0    0.00 
  59   19:20   0.00   33.8    99    0.4    43     0.7   831.0    0.00 
  59   19:30   0.00   33.7    99    0.4    53     0.8   831.0    0.00 
  59   19:40   0.00   33.7    99    0.2   133     0.6   831.0    0.00 
  59   19:50   0.00   33.7    99    0.4    56     0.8   831.0    0.00 
  59   20:00   0.00   33.7    99    0.5    50     1.2   831.0    0.00 
  59   20:10   0.00   33.7    99    0.3   135     0.6   831.0    0.00 
  59   20:20   0.00   33.7    99    0.3    46     0.9   831.0    0.00 
  59   20:30   0.00   33.7    99    0.2    28     0.7   831.0    0.00 
  59   20:40   0.00   33.5    99    0.4    47     0.9   831.0    0.00 
  59   20:50   0.00   33.5    99    0.4    50     0.8   831.0    0.00 
  59   21:00   0.00   33.6   100    0.2    39     0.6   831.0    0.00 
  59   21:10   0.00   33.5   100    0.3   239     0.7   831.0    0.00 
  59   21:20   0.00   33.2   100    0.2    66     0.7   831.0    0.01 
  59   21:30   0.00   32.9   100    0.5    65     1.2   831.0    0.00 
  59   21:40   0.00   32.8   100    0.5    36     0.9   831.0    0.00 
  59   21:50   0.00   32.8   100    0.2    88     0.5   831.0    0.01 
  59   22:00   0.00   32.7   100    0.4    67     0.8   831.0    0.00 
  59   22:10   0.00   32.5   100    0.6    70     1.0   831.0    0.01 
  59   22:20   0.00   32.5   100    0.7    65     1.4   831.0    0.01 
  59   22:30   0.00   32.3   100    0.4    26     0.9   831.0    0.01 
  59   22:40   0.00   32.3   100    0.5    32     1.1   832.0    0.01 
  59   22:50   0.00   32.4   100    0.9    36     1.7   832.0    0.00 
  59   23:00   0.00   32.5   100    0.6    40     1.2   832.0    0.01 
  59   23:10   0.00   32.4   100    0.5   334     1.3   832.0    0.01 
  59   23:20   0.00   32.5   100    0.4    35     0.8   832.0    0.00 
  59   23:30   0.00   32.7   100    0.5    33     1.1   832.0    0.00 
  59   23:40   0.00   32.6   100    0.4   254     0.9   832.0    0.00 
  59   23:50   0.00   32.5   100    0.5    59     1.0   832.0    0.00 
  60    0:00   0.00   32.4   100    0.3    72     0.9   832.0    0.00 
  60    0:10   0.00   32.3   100    0.4   169     0.7   832.0    0.00 
  60    0:20   0.00   32.3   100    0.5    58     0.9   832.0    0.00 
  60    0:30   0.00   32.4   100    0.5    60     1.0   832.0    0.00 
  60    0:40   0.00   32.5   100    0.6    49     1.0   832.0    0.00 
  60    0:50   0.00   32.6   100    0.4    72     1.3   832.0    0.00 
  60    1:00   0.00   32.5   100    0.4    35     1.0   832.0    0.00 
  60    1:10   0.00   32.5   100    0.4    74     1.1   832.0    0.01 
  60    1:20   0.00   32.3   100    0.3   235     0.8   832.0    0.01 
  60    1:30   0.00   32.3   100    0.5   162     1.7   832.0    0.01 
  60    1:40   0.00   32.2   100    0.3    64     0.8   832.0    0.01 
  60    1:50   0.00   32.1   100    0.3    59     0.5   832.0    0.01 
  60    2:00   0.00   32.2   100    0.9    47     1.4   832.0    0.00 
  60    2:10   0.00   32.2   100    0.9    34     1.6   832.0    0.00 
  60    2:20   0.00   32.2   100    0.8    34     1.5   832.0    0.00 
  60    2:30   0.00   32.3   100    0.8    35     1.6   832.0    0.00 
  60    2:40   0.00   32.5   100    0.7     3     1.4   832.0    0.00 
  60    2:50   0.00   32.4   100    0.6    29     1.4   832.0    0.00 
  60    3:00   0.00   32.6   100    0.7    38     1.7   832.0    0.00 
  60    3:10   0.00   32.6   100    0.5    26     1.1   832.0    0.00 
  60    3:20   0.00   32.6   100    0.4    38     0.7   832.0    0.00 
  60    3:30   0.00   32.5   100    0.6    41     1.6   832.0    0.00 
  60    3:40   0.00   32.7   100    0.5    60     1.4   831.0    0.00 
  60    3:50   0.00   32.6   100    0.5    17     1.2   831.0    0.00 
  60    4:00   0.00   32.6   100    0.6    44     1.4   831.0    0.00 
  60    4:10   0.00   32.7   100    0.5   218     1.2   831.0    0.00 
  60    4:20   0.00   32.7   100    0.5    20     0.9   831.0    0.00 
  60    4:30   0.00   32.6   100    0.4    24     1.0   831.0    0.00 
  60    4:40   0.00   32.6   100    0.5    47     1.3   831.0    0.00 
  60    4:50   0.00   32.6   100    0.3    43     0.6   831.0    0.00 
  60    5:00   0.00   32.6   100    0.3    68     0.8   831.0    0.00 
  60    5:10   0.00   32.6   100    0.3    58     0.7   832.0    0.01 
  60    5:20   0.00   32.7   100    0.4    52     0.8   831.0    0.00 
  60    5:30   0.00   32.7   100    0.3   165     0.8   832.0    0.00 
  60    5:40   0.00   32.6   100    0.2   110     0.4   832.0    0.01 
  60    5:50   0.00   32.5   100    0.3    45     1.1   832.0    0.01 
  60    6:00   0.00   32.3   100    0.3    34     1.0   832.0    0.01 
  60    6:10   0.00   32.3   100    0.2   141     0.5   832.0    0.01 
  60    6:20   0.00   32.2   100    0.3    47     0.6   832.0    0.02 
  60    6:30   0.00   32.2   100    0.3    45     0.5   832.0    0.01 
  60    6:40   0.00   32.2   100    0.3    44     0.5   832.0    0.01 
  60    6:50   0.00   32.2   100    0.4    42     0.6   832.0    0.01 
  60    7:00   0.00   32.3   100    0.5    50     1.1   832.0    0.01 
  60    7:10   0.01   32.5   100    1.4    65     2.3   832.0    0.00 
  60    7:20   0.01   32.9   100    0.5    73     1.7   832.0    0.00 
  60    7:30   0.02   32.6   100    0.7    37     1.2   832.0    0.00 
  60    7:40   0.02   32.7   100    0.4   165     1.2   832.0    0.00 
  60    7:50   0.02   32.8   100    0.5    38     1.1   833.0    0.00 
  60    8:00   0.02   32.9   100    0.6    43     1.2   832.0    0.01 
  60    8:10   0.03   33.0   100    0.2    43     0.6   833.0    0.00 
  60    8:20   0.03   33.2   100    0.4    56     0.7   833.0    0.00 
  60    8:30   0.03   33.2   100    0.6    52     0.8   833.0    0.00 
  60    8:40   0.03   33.2   100    0.2    82     0.6   833.0    0.01 
  60    8:50   0.03   32.9   100    0.2    30     0.4   833.0    0.01 
  60    9:00   0.03   32.5   100    0.8    52     1.8   833.0    0.02 
  60    9:10   0.03   32.3   100    0.3    72     0.8   833.0    0.02 
  60    9:20   0.03   32.2   100    0.4    70     1.9   833.0    0.01 
  60    9:30   0.03   32.3   100    0.7    49     1.9   833.0    0.01 
  60    9:40   0.02   32.2   100    0.4    53     0.7   833.0    0.02 
  60    9:50   0.02   32.3   100    0.2    46     0.5   833.0    0.01 
  60   10:00   0.02   32.3   100    0.2    66     0.4   833.0    0.02 
  60   10:10   0.02   32.2   100    0.2    26     0.5   833.0    0.01 
  60   10:20   0.02   32.2   100    0.3    33     0.6   833.0    0.01 
  60   10:30   0.02   32.3   100    0.1    63     0.3   833.0    0.01 
  60   10:40   0.03   32.3   100    0.2    50     0.4   833.0    0.03 
  60   10:50   0.03   32.3   100    0.4   226     0.7   833.0    0.02 
  60   11:00   0.03   32.4   100    0.3    68     0.9   833.0    0.02 
  60   11:10   0.03   32.3   100    0.7   223     1.2   833.0    0.03 
  60   11:20   0.04   32.4   100    0.3    39     0.8   833.0    0.02 
  60   11:30   0.07   32.5   100    0.2    51     0.6   833.0    0.04 
  60   11:40   0.09   32.7   100    0.4   222     0.9   832.0    0.01 
  60   11:50   0.05   32.9   100    0.3    66     0.7   833.0    0.00 

Return to James Reserve graphs page.


Western Regional Climate Center,wrcc@dri.edu